createdAt,value
2018-12-04T00:02:23.103Z,1.33
2018-12-04T00:05:27.622Z,1.67
2018-12-04T00:08:32.161Z,2.20
2018-12-04T00:11:36.664Z,1.07
2018-12-04T00:14:41.110Z,1.60
2018-12-04T00:17:45.640Z,1.20
2018-12-04T00:20:50.222Z,1.70
2018-12-04T00:23:54.711Z,1.43
2018-12-04T00:26:59.543Z,1.53
2018-12-04T00:30:05.349Z,1.20
2018-12-04T00:33:09.882Z,1.07
2018-12-04T00:36:14.429Z,1.00
2018-12-04T00:39:19.015Z,0.90
2018-12-04T00:42:23.547Z,0.97
2018-12-04T00:45:28.188Z,1.00
2018-12-04T00:48:32.677Z,1.00
2018-12-04T00:51:37.450Z,1.40
2018-12-04T00:54:41.987Z,1.10
2018-12-04T00:57:46.503Z,1.10
2018-12-04T01:00:50.997Z,0.70
2018-12-04T01:03:55.644Z,0.90
2018-12-04T01:07:00.169Z,1.60
2018-12-04T01:10:06.684Z,0.80
2018-12-04T01:13:11.280Z,1.47
2018-12-04T01:16:15.762Z,1.00
2018-12-04T01:19:20.385Z,1.20
2018-12-04T01:22:24.930Z,0.80
2018-12-04T01:25:29.565Z,0.93
2018-12-04T01:28:34.254Z,0.87
2018-12-04T01:31:38.742Z,0.83
2018-12-04T01:34:43.363Z,1.27
2018-12-04T01:37:48.029Z,1.40
2018-12-04T01:40:52.693Z,1.03
2018-12-04T01:43:57.497Z,0.90
2018-12-04T01:47:02.521Z,1.07
2018-12-04T01:50:07.364Z,1.13
2018-12-04T01:53:11.947Z,1.30
2018-12-04T01:56:16.609Z,0.97
2018-12-04T01:59:21.165Z,1.07
2018-12-04T02:02:25.662Z,1.30
2018-12-04T02:05:30.180Z,1.00
2018-12-04T02:08:34.712Z,0.90
2018-12-04T02:11:39.256Z,1.20
2018-12-04T02:14:43.844Z,0.90
2018-12-04T02:17:48.515Z,0.90
2018-12-04T02:20:54.016Z,1.20
2018-12-04T02:23:58.530Z,1.13
2018-12-04T02:27:03.049Z,0.93
2018-12-04T02:30:09.888Z,1.00
2018-12-04T02:33:14.406Z,1.20
2018-12-04T02:36:18.965Z,0.90
2018-12-04T02:39:23.717Z,1.03
2018-12-04T02:42:28.356Z,1.00
2018-12-04T02:45:32.786Z,0.90
2018-12-04T02:48:37.445Z,1.23
2018-12-04T02:51:42.096Z,1.00
2018-12-04T02:54:46.609Z,1.73
2018-12-04T02:57:51.249Z,1.37
2018-12-04T03:00:55.824Z,1.20
2018-12-04T03:04:00.479Z,1.13
2018-12-04T03:07:05.086Z,0.90
2018-12-04T03:10:09.836Z,1.10
2018-12-04T03:13:14.341Z,1.00
2018-12-04T03:16:18.953Z,1.10
2018-12-04T03:19:23.588Z,0.83
2018-12-04T03:22:28.095Z,1.43
2018-12-04T03:25:32.833Z,1.10
2018-12-04T03:28:37.517Z,1.50
2018-12-04T03:31:41.967Z,1.10
2018-12-04T03:34:46.539Z,1.00
2018-12-04T03:37:51.090Z,1.07
2018-12-04T03:40:55.654Z,0.90
2018-12-04T03:44:00.476Z,1.27
2018-12-04T03:47:05.154Z,1.10
2018-12-04T03:50:09.992Z,1.30
2018-12-04T03:53:14.503Z,1.17
2018-12-04T03:56:19.069Z,1.30
2018-12-04T03:59:23.611Z,1.10
2018-12-04T04:02:28.294Z,1.33
2018-12-04T04:05:32.827Z,1.43
2018-12-04T04:08:37.410Z,1.10
2018-12-04T04:11:42.025Z,1.10
2018-12-04T04:14:46.536Z,0.90
2018-12-04T04:17:51.718Z,1.50
2018-12-04T04:20:59.428Z,1.10
2018-12-04T04:24:04.024Z,1.33
2018-12-04T04:27:08.641Z,1.50
2018-12-04T04:30:13.338Z,1.60
2018-12-04T04:33:17.859Z,1.10
2018-12-04T04:36:22.446Z,1.47
2018-12-04T04:39:27.057Z,1.70
2018-12-04T04:42:31.539Z,1.40
2018-12-04T04:45:36.056Z,1.13
2018-12-04T04:48:40.643Z,1.47
2018-12-04T04:51:45.377Z,1.20
2018-12-04T04:54:49.990Z,1.33
2018-12-04T04:57:54.550Z,1.30
2018-12-04T05:00:59.082Z,1.20
2018-12-04T05:04:03.599Z,1.43
2018-12-04T05:07:08.185Z,1.30
2018-12-04T05:10:12.678Z,1.40
2018-12-04T05:13:17.148Z,1.13
2018-12-04T05:16:21.695Z,1.20
2018-12-04T05:19:26.516Z,1.10
2018-12-04T05:22:31.164Z,1.50
2018-12-04T05:25:35.678Z,1.50
2018-12-04T05:28:40.162Z,1.50
2018-12-04T05:31:44.753Z,1.10
2018-12-04T05:34:49.264Z,1.27
2018-12-04T05:37:53.790Z,1.17
2018-12-04T05:44:12.545Z,1.20
2018-12-04T05:47:17.146Z,0.90
2018-12-04T05:50:21.985Z,0.80
2018-12-04T05:53:36.096Z,1.20
2018-12-04T05:56:40.860Z,1.00
2018-12-04T05:59:45.381Z,1.07
2018-12-04T06:02:49.946Z,0.90
2018-12-04T06:05:54.434Z,1.20
2018-12-04T06:08:58.955Z,3.80
2018-12-04T06:12:03.561Z,0.70
2018-12-04T06:15:08.237Z,0.80
2018-12-04T06:18:12.654Z,0.70
2018-12-04T06:21:17.220Z,0.90
2018-12-04T06:24:21.721Z,0.67
2018-12-04T06:27:26.350Z,0.67
2018-12-04T06:30:31.038Z,0.50
2018-12-04T06:33:35.654Z,0.63
2018-12-04T06:36:40.307Z,0.50
2018-12-04T06:39:44.875Z,0.60
2018-12-04T06:42:49.373Z,0.40
2018-12-04T06:45:53.882Z,0.50
2018-12-04T06:48:58.402Z,0.67
2018-12-04T06:52:02.981Z,0.33
2018-12-04T06:55:08.956Z,0.60
2018-12-04T06:58:13.503Z,0.40
2018-12-04T07:01:18.055Z,0.57
2018-12-04T07:04:22.605Z,0.60
2018-12-04T07:07:27.144Z,0.60
2018-12-04T07:10:31.630Z,0.40
2018-12-04T07:13:36.217Z,0.53
2018-12-04T07:16:40.834Z,0.50
2018-12-04T07:19:45.359Z,0.93
2018-12-04T07:22:50.010Z,0.60
2018-12-04T07:25:54.537Z,0.50
2018-12-04T07:28:59.107Z,0.80
2018-12-04T07:32:03.748Z,0.60
2018-12-04T07:35:09.545Z,1.53
2018-12-04T07:38:14.133Z,0.93
2018-12-04T07:41:18.833Z,0.50
2018-12-04T07:44:23.344Z,0.87
2018-12-04T07:47:27.895Z,0.50
2018-12-04T07:50:32.462Z,1.07
2018-12-04T07:53:37.098Z,0.70
2018-12-04T07:56:41.711Z,1.20
2018-12-04T07:59:46.556Z,0.60
2018-12-04T08:02:51.821Z,0.83
2018-12-04T08:05:56.646Z,0.93
2018-12-04T08:09:01.336Z,0.83
2018-12-04T08:12:05.885Z,0.80
2018-12-04T08:15:10.498Z,2.17
2018-12-04T08:18:15.099Z,1.47
2018-12-04T08:21:19.690Z,0.80
2018-12-04T08:24:24.181Z,0.97
2018-12-04T08:27:34.205Z,1.20
2018-12-04T08:30:38.812Z,1.23
2018-12-04T08:33:43.499Z,1.23
2018-12-04T08:36:48.181Z,2.00
2018-12-04T08:39:52.682Z,1.70
2018-12-04T08:42:59.069Z,2.10
2018-12-04T08:46:03.668Z,1.90
2018-12-04T08:49:08.295Z,1.50
2018-12-04T08:52:12.840Z,1.23
2018-12-04T08:55:19.018Z,1.10
2018-12-04T08:58:23.875Z,1.30
2018-12-04T09:01:28.397Z,1.30
2018-12-04T09:04:33.085Z,0.90
2018-12-04T09:07:37.628Z,1.33
2018-12-04T09:10:42.245Z,2.40
2018-12-04T09:13:46.778Z,1.60
2018-12-04T09:16:51.392Z,1.40
2018-12-04T09:19:56.205Z,0.97
2018-12-04T09:23:00.972Z,1.27
2018-12-04T09:26:05.652Z,1.00
2018-12-04T09:29:10.319Z,1.07
2018-12-04T09:32:15.485Z,1.30
2018-12-04T09:35:20.039Z,1.27
2018-12-04T09:38:24.612Z,1.10
2018-12-04T09:41:29.197Z,1.40
2018-12-04T09:44:33.988Z,1.20
2018-12-04T09:47:38.735Z,1.17
2018-12-04T09:50:43.243Z,1.10
2018-12-04T09:53:52.045Z,1.00
2018-12-04T09:56:54.436Z,1.27
2018-12-04T09:59:58.902Z,1.17
2018-12-04T10:03:03.408Z,1.20
2018-12-04T10:06:08.025Z,1.37
2018-12-04T10:09:12.594Z,1.30
2018-12-04T10:12:17.280Z,3.70
2018-12-04T10:15:22.004Z,1.30
2018-12-04T10:18:26.592Z,1.00
2018-12-04T10:21:31.250Z,1.30
2018-12-04T10:24:35.848Z,1.20
2018-12-04T10:27:40.587Z,1.40
2018-12-04T10:30:49.220Z,1.30
2018-12-04T10:33:53.915Z,1.40
2018-12-04T10:36:58.443Z,1.33
2018-12-04T10:40:03.046Z,1.27
2018-12-04T10:43:07.663Z,1.33
2018-12-04T10:46:12.270Z,1.07
2018-12-04T10:49:17.013Z,1.90
2018-12-04T10:52:21.858Z,1.40
2018-12-04T10:55:26.443Z,1.30
2018-12-04T10:58:31.036Z,1.40
2018-12-04T11:01:40.587Z,2.30
2018-12-04T11:04:45.178Z,1.10
2018-12-04T11:07:49.682Z,1.23
2018-12-04T11:10:54.311Z,1.30
2018-12-04T11:13:58.905Z,1.37
2018-12-04T11:17:03.517Z,1.30
2018-12-04T11:20:10.655Z,1.10
2018-12-04T11:23:15.689Z,1.60
2018-12-04T11:26:20.327Z,1.20
2018-12-04T11:29:24.983Z,1.37
2018-12-04T11:32:29.540Z,1.43
2018-12-04T11:35:34.146Z,1.17
2018-12-04T11:38:38.667Z,1.10
2018-12-04T11:41:43.234Z,1.33
2018-12-04T11:44:47.759Z,1.20
2018-12-04T11:47:52.377Z,1.43
2018-12-04T11:51:00.233Z,1.20
2018-12-04T11:54:03.762Z,1.60
2018-12-04T11:57:08.580Z,1.67
2018-12-04T12:03:36.730Z,1.50
2018-12-04T12:06:41.455Z,1.07
2018-12-04T12:09:46.006Z,1.40
2018-12-04T12:12:50.481Z,1.27
2018-12-04T12:15:55.284Z,1.30
2018-12-04T12:18:59.945Z,0.90
2018-12-04T12:22:04.740Z,0.80
2018-12-04T12:25:09.506Z,1.33
2018-12-04T12:28:14.011Z,1.27
2018-12-04T12:31:21.093Z,1.10
2018-12-04T12:34:25.675Z,1.17
2018-12-04T12:37:30.296Z,0.77
2018-12-04T12:40:35.282Z,0.97
2018-12-04T12:43:40.149Z,1.43
2018-12-04T12:46:44.850Z,1.37
2018-12-04T12:49:49.583Z,1.00
2018-12-04T12:52:54.183Z,1.10
2018-12-04T12:55:58.881Z,1.30
2018-12-04T12:59:03.548Z,1.20
2018-12-04T13:02:08.128Z,1.10
2018-12-04T13:05:12.892Z,1.10
2018-12-04T13:08:18.166Z,1.30
2018-12-04T13:11:28.950Z,1.20
2018-12-04T13:14:34.112Z,1.13
2018-12-04T13:17:38.780Z,1.10
2018-12-04T13:20:43.350Z,1.10
2018-12-04T13:23:47.919Z,1.10
2018-12-04T13:26:52.685Z,1.23
2018-12-04T13:29:57.263Z,1.37
2018-12-04T13:33:01.819Z,1.63
2018-12-04T13:36:06.809Z,2.10
2018-12-04T13:39:12.309Z,1.50
2018-12-04T13:42:16.938Z,1.63
2018-12-04T13:45:21.554Z,1.30
2018-12-04T13:48:26.093Z,1.67
2018-12-04T13:51:30.987Z,1.27
2018-12-04T13:54:35.777Z,1.63
2018-12-04T13:57:40.457Z,1.10
2018-12-04T14:00:46.365Z,1.27
2018-12-04T14:03:56.142Z,1.20
2018-12-04T14:07:01.102Z,1.20
2018-12-04T14:10:08.623Z,2.60
2018-12-04T14:13:13.352Z,4.77
2018-12-04T14:16:17.974Z,2.93
2018-12-04T14:19:22.506Z,1.43
2018-12-04T14:22:27.227Z,2.03
2018-12-04T14:25:31.768Z,2.13
2018-12-04T14:28:36.494Z,3.07
2018-12-04T14:31:41.010Z,1.63
2018-12-04T14:34:45.938Z,1.77
2018-12-04T14:37:50.598Z,1.23
2018-12-04T14:40:55.269Z,1.87
2018-12-04T14:44:08.399Z,1.20
2018-12-04T14:47:13.072Z,1.30
2018-12-04T14:50:17.938Z,1.10
2018-12-04T14:53:22.505Z,1.40
2018-12-04T14:56:27.653Z,1.33
2018-12-04T14:59:32.352Z,1.43
2018-12-04T15:02:36.976Z,1.20
2018-12-04T15:05:41.542Z,1.30
2018-12-04T15:08:46.261Z,2.07
2018-12-04T15:11:51.016Z,1.50
2018-12-04T15:14:55.807Z,1.70
2018-12-04T15:18:00.454Z,1.70
2018-12-04T15:21:05.956Z,1.40
2018-12-04T15:24:10.630Z,1.50
2018-12-04T15:27:15.380Z,1.40
2018-12-04T15:30:20.225Z,1.70
2018-12-04T15:33:24.849Z,1.37
2018-12-04T15:36:29.600Z,1.70
2018-12-04T15:39:34.142Z,2.10
2018-12-04T15:42:38.772Z,2.10
2018-12-04T15:45:43.507Z,2.33
2018-12-04T15:48:48.135Z,7.73
2018-12-04T15:51:52.811Z,17.80
2018-12-04T15:54:57.587Z,13.30
2018-12-04T15:58:02.381Z,4.53
2018-12-04T16:01:07.776Z,2.30
2018-12-04T16:04:12.393Z,2.00
2018-12-04T16:07:17.098Z,2.10
2018-12-04T16:10:21.677Z,2.17
2018-12-04T16:13:26.127Z,6.10
2018-12-04T16:16:30.802Z,8.93
2018-12-04T16:19:35.373Z,8.53
2018-12-04T16:22:39.993Z,8.13
2018-12-04T16:25:44.555Z,7.37
2018-12-04T16:28:50.344Z,2.80
2018-12-04T16:31:57.230Z,2.23
2018-12-04T16:35:01.817Z,3.83
2018-12-04T16:38:06.501Z,15.87
2018-12-04T16:41:11.304Z,11.90
2018-12-04T16:44:15.853Z,18.87
2018-12-04T16:47:20.576Z,11.57
2018-12-04T16:50:25.223Z,5.40
2018-12-04T16:53:29.843Z,9.67
2018-12-04T16:56:34.409Z,10.10
2018-12-04T16:59:39.121Z,12.20
2018-12-04T17:02:43.876Z,10.80
2018-12-04T17:05:48.443Z,7.10
2018-12-04T17:08:52.958Z,8.10
2018-12-04T17:11:57.536Z,7.27
2018-12-04T17:15:02.281Z,7.00
2018-12-04T17:18:07.646Z,8.07
2018-12-04T17:21:12.266Z,12.27
2018-12-04T17:24:16.905Z,14.47
2018-12-04T17:27:21.414Z,13.40
2018-12-04T17:30:26.492Z,11.77
2018-12-04T17:33:31.219Z,8.97
2018-12-04T17:36:35.886Z,7.97
2018-12-04T17:39:40.403Z,9.33
2018-12-04T17:42:44.980Z,7.93
2018-12-04T17:45:49.737Z,7.97
2018-12-04T17:48:54.225Z,11.80
2018-12-04T17:51:58.895Z,9.83
2018-12-04T17:55:03.529Z,9.40
2018-12-04T17:58:08.051Z,8.63
2018-12-04T18:01:12.702Z,7.60
2018-12-04T18:04:17.380Z,7.87
2018-12-04T18:07:22.352Z,7.90
2018-12-04T18:10:27.044Z,7.67
2018-12-04T18:13:31.719Z,7.83
2018-12-04T18:16:36.578Z,12.60
2018-12-04T18:19:41.383Z,10.47
2018-12-04T18:22:46.046Z,10.93
2018-12-04T18:25:50.737Z,6.43
2018-12-04T18:28:55.502Z,31.83
2018-12-04T18:32:00.119Z,9.40
2018-12-04T18:35:05.062Z,16.97
2018-12-04T18:38:10.265Z,17.27
2018-12-04T18:41:14.820Z,12.73
2018-12-04T18:44:20.197Z,19.87
2018-12-04T18:47:24.770Z,18.07
2018-12-04T18:50:29.622Z,18.13
2018-12-04T18:53:34.591Z,19.17
2018-12-04T18:56:39.257Z,18.67
2018-12-04T18:59:44.803Z,19.23
2018-12-04T19:03:37.477Z,19.07
2018-12-04T19:06:42.037Z,15.57
2018-12-04T19:09:46.719Z,13.63
2018-12-04T19:12:51.565Z,12.23
2018-12-04T19:15:56.307Z,9.23
2018-12-04T19:19:01.878Z,10.07
2018-12-04T19:22:06.621Z,9.73
2018-12-04T19:25:11.486Z,9.60
2018-12-04T19:28:16.196Z,11.77
2018-12-04T19:31:21.387Z,13.80
2018-12-04T19:34:26.277Z,9.23
2018-12-04T19:37:31.020Z,12.17
2018-12-04T19:40:36.435Z,11.83
2018-12-04T19:43:41.306Z,10.73
2018-12-04T19:46:45.858Z,11.93
2018-12-04T19:49:50.653Z,14.47
2018-12-04T19:52:55.397Z,16.20
2018-12-04T19:56:00.352Z,16.77
2018-12-04T20:02:19.759Z,16.77
2018-12-04T20:05:24.467Z,17.13
2018-12-04T20:08:33.321Z,16.80
2018-12-04T20:14:54.491Z,13.37
2018-12-04T20:17:59.181Z,14.23
2018-12-04T20:21:03.764Z,11.17
2018-12-04T20:24:08.450Z,12.93
2018-12-04T20:27:13.105Z,19.47
2018-12-04T20:30:17.823Z,18.43
2018-12-04T20:33:22.462Z,14.00
2018-12-04T20:36:26.967Z,12.73
2018-12-04T20:39:31.513Z,9.10
2018-12-04T20:42:36.033Z,7.13
2018-12-04T20:45:40.659Z,6.80
2018-12-04T20:48:45.247Z,8.13
2018-12-04T20:51:49.781Z,6.60
2018-12-04T20:54:54.383Z,6.33
2018-12-04T20:57:59.053Z,7.93
2018-12-04T21:01:03.759Z,5.67
2018-12-04T21:04:08.285Z,7.10
2018-12-04T21:07:12.845Z,6.07
2018-12-04T21:10:17.402Z,6.77
2018-12-04T21:13:22.164Z,7.47
2018-12-04T21:16:26.777Z,8.33
2018-12-04T21:19:31.257Z,9.60
2018-12-04T21:22:36.022Z,9.03
2018-12-04T21:30:01.800Z,8.63
2018-12-04T21:33:11.606Z,7.93
2018-12-04T21:37:20.889Z,7.80
2018-12-04T21:40:30.680Z,6.70
2018-12-04T21:43:40.463Z,7.27
2018-12-04T21:46:50.264Z,7.83
2018-12-04T21:50:01.640Z,11.27
2018-12-04T21:53:06.226Z,7.97
2018-12-04T21:56:10.842Z,8.30
2018-12-04T21:59:15.459Z,8.97
2018-12-04T22:02:20.083Z,8.20
2018-12-04T22:05:25.652Z,7.93
2018-12-04T22:08:30.200Z,7.20
2018-12-04T22:11:35.032Z,9.13
2018-12-04T22:14:39.702Z,9.20
2018-12-04T22:17:45.026Z,7.33
2018-12-04T22:20:49.631Z,9.23
2018-12-04T22:23:54.121Z,7.73
2018-12-04T22:26:59.387Z,7.67
2018-12-04T22:30:04.842Z,8.03
2018-12-04T22:33:09.784Z,9.23
2018-12-04T22:36:14.718Z,11.03
2018-12-04T22:39:19.344Z,6.67
2018-12-04T22:42:24.099Z,8.20
2018-12-04T22:45:28.928Z,6.03
2018-12-04T22:48:34.688Z,6.93
2018-12-04T22:51:39.259Z,7.37
2018-12-04T22:54:43.753Z,5.00
2018-12-04T22:57:48.646Z,5.97
2018-12-04T23:00:53.637Z,5.50
2018-12-04T23:03:58.444Z,6.37
2018-12-04T23:07:03.443Z,5.60
2018-12-04T23:10:08.608Z,5.07
2018-12-04T23:13:13.775Z,4.90
2018-12-04T23:16:19.374Z,5.17
2018-12-04T23:19:24.802Z,5.10
2018-12-04T23:22:29.892Z,7.43
2018-12-04T23:25:35.604Z,6.50
2018-12-04T23:28:40.221Z,5.97
2018-12-04T23:31:44.783Z,10.90
2018-12-04T23:34:49.870Z,9.87
2018-12-04T23:37:55.834Z,5.73
2018-12-04T23:41:00.935Z,4.63
2018-12-04T23:44:05.660Z,6.43
2018-12-04T23:47:11.014Z,8.43
2018-12-04T23:50:15.745Z,16.57
2018-12-04T23:53:20.315Z,12.97
2018-12-04T23:56:25.474Z,16.30
2018-12-04T23:59:30.669Z,11.30
